Time;durP1;ratioP1;P1;durP2;ratioP2;P2;SDS_P1;SDS_P2;PMS_P1;PMS_P2;Temp;Humidity;BMP_temperature;BMP_pressure;BME280_temperature;BME280_humidity;BME280_pressure;Samples;Min_cycle;Max_cycle;Signal;HPM_P1;HPM_P2
2022/01/14 00:01:38;;;;;;;14.15;4.55;;;4.20;99.90;;;;;;4919820;29;20401;-91
2022/01/14 00:04:05;;;;;;;15.45;4.75;;;4.20;99.90;;;;;;4920513;29;20043;-91
2022/01/14 00:06:31;;;;;;;8.43;4.22;;;4.10;99.90;;;;;;4919990;29;20090;-91
2022/01/14 00:09:05;;;;;;;14.23;4.40;;;4.10;99.90;;;;;;4919396;29;20135;-91
2022/01/14 00:11:39;;;;;;;15.10;3.97;;;4.10;99.90;;;;;;4921905;29;20036;-92
2022/01/14 00:16:32;;;;;;;12.57;4.63;;;4.20;99.90;;;;;;4945339;29;20078;-91
2022/01/14 00:18:58;;;;;;;15.25;4.90;;;4.20;99.90;;;;;;4943864;29;20016;-92
2022/01/14 00:21:24;;;;;;;14.43;4.57;;;4.20;99.90;;;;;;4941511;29;20042;-93
2022/01/14 00:23:51;;;;;;;14.00;4.43;;;4.30;99.90;;;;;;4923115;29;20056;-93
2022/01/14 00:31:55;;;;;;;9.60;3.55;;;4.20;99.90;;;;;;4941382;29;20074;-91
2022/01/14 00:34:20;;;;;;;15.38;3.75;;;4.20;99.90;;;;;;4923515;29;20039;-92
2022/01/14 00:36:46;;;;;;;13.52;4.18;;;4.20;99.90;;;;;;4928334;29;20023;-91
2022/01/14 00:39:13;;;;;;;7.43;3.58;;;4.10;99.90;;;;;;4941444;29;20047;-92
2022/01/14 00:41:41;;;;;;;14.48;3.17;;;4.10;99.90;;;;;;4940885;29;20031;-90
2022/01/14 00:44:11;;;;;;;10.27;3.42;;;4.10;99.90;;;;;;4939440;29;20062;-92
2022/01/14 00:46:38;;;;;;;9.15;3.15;;;4.00;99.90;;;;;;4940754;29;20019;-92
2022/01/14 00:49:04;;;;;;;9.02;3.00;;;4.00;99.90;;;;;;4941466;29;20035;-92
2022/01/14 00:51:30;;;;;;;11.63;4.35;;;4.00;99.90;;;;;;4942252;29;20361;-91
2022/01/14 00:53:56;;;;;;;7.25;3.25;;;4.00;99.90;;;;;;4942522;29;20122;-93
2022/01/14 01:01:35;;;;;;;19.33;5.13;;;4.00;99.90;;;;;;4959812;29;20070;-90
2022/01/14 01:04:01;;;;;;;12.48;3.90;;;4.00;99.90;;;;;;4942306;29;20456;-93
2022/01/14 01:06:27;;;;;;;14.70;4.00;;;4.00;99.90;;;;;;4942661;29;20094;-91
2022/01/14 01:08:55;;;;;;;9.13;3.25;;;4.00;99.90;;;;;;4944202;29;20053;-91
2022/01/14 01:11:26;;;;;;;13.73;3.78;;;4.00;99.90;;;;;;4948651;29;20031;-91
2022/01/14 01:14:02;;;;;;;11.63;3.67;;;4.00;99.90;;;;;;4949333;29;20027;-93
2022/01/14 01:16:28;;;;;;;12.50;4.30;;;4.00;99.90;;;;;;4947590;29;20095;-92
2022/01/14 01:18:53;;;;;;;9.13;4.10;;;4.00;99.90;;;;;;4943696;29;20060;-93
2022/01/14 01:21:19;;;;;;;8.68;3.90;;;4.00;99.90;;;;;;4942963;29;20038;-92
2022/01/14 01:23:45;;;;;;;11.65;3.80;;;4.00;99.90;;;;;;4942519;29;20122;-93
2022/01/14 01:26:16;;;;;;;10.95;3.50;;;4.00;99.90;;;;;;4942893;29;20114;-91
2022/01/14 01:28:58;;;;;;;10.23;3.80;;;4.00;99.90;;;;;;4941785;29;20097;-94
2022/01/14 01:31:37;;;;;;;6.63;3.13;;;4.00;99.90;;;;;;4942580;29;20031;-91
2022/01/14 01:34:14;;;;;;;9.93;3.03;;;3.90;99.90;;;;;;4942682;29;20053;-93
2022/01/14 01:36:42;;;;;;;15.05;4.10;;;3.90;99.90;;;;;;4942393;29;20019;-92
2022/01/14 01:39:11;;;;;;;10.23;3.33;;;3.90;99.90;;;;;;4958923;29;20114;-93
2022/01/14 01:41:40;;;;;;;12.57;3.40;;;3.80;99.90;;;;;;4949684;29;20024;-95
2022/01/14 01:44:07;;;;;;;9.65;3.95;;;3.80;99.90;;;;;;4942280;29;20126;-91
2022/01/14 01:46:40;;;;;;;9.80;3.70;;;3.80;99.90;;;;;;4926606;29;20050;-92
2022/01/14 01:49:09;;;;;;;3.88;3.42;;;3.90;99.90;;;;;;4942243;29;20145;-92
2022/01/14 01:51:35;;;;;;;7.97;3.35;;;3.90;99.90;;;;;;4952541;29;20028;-92
2022/01/14 01:54:01;;;;;;;11.13;3.33;;;3.90;99.90;;;;;;4961251;29;20074;-91
2022/01/14 01:56:27;;;;;;;8.05;3.33;;;3.90;99.90;;;;;;4950747;29;20039;-91
2022/01/14 01:58:56;;;;;;;12.15;4.70;;;3.80;99.90;;;;;;4941901;29;20481;-92
2022/01/14 02:01:23;;;;;;;8.23;3.40;;;3.80;99.90;;;;;;4941743;29;20027;-92
2022/01/14 02:03:49;;;;;;;10.27;3.47;;;3.80;99.90;;;;;;4941185;29;20039;-91
2022/01/14 02:06:15;;;;;;;9.00;3.67;;;3.80;99.90;;;;;;4941259;29;20031;-92
2022/01/14 02:08:41;;;;;;;6.95;2.97;;;3.80;99.90;;;;;;4941262;29;20497;-91
2022/01/14 02:11:07;;;;;;;6.75;2.90;;;3.80;99.90;;;;;;4941280;29;20035;-90
2022/01/14 02:13:33;;;;;;;6.15;3.42;;;3.80;99.90;;;;;;4941575;29;20381;-91
2022/01/14 02:18:41;;;;;;;11.88;4.60;;;3.70;99.90;;;;;;4958000;29;20028;-92
2022/01/14 02:24:56;;;;;;;6.47;3.17;;;3.70;99.90;;;;;;4957593;29;20054;-92
2022/01/14 02:26:52;;;;;;;8.68;3.20;;;3.60;99.90;;;;;;4944297;29;20039;-91
2022/01/14 02:29:19;;;;;;;8.43;3.17;;;3.60;99.90;;;;;;4941081;29;20031;-92
2022/01/14 02:31:45;;;;;;;7.07;3.05;;;3.60;99.90;;;;;;4940737;29;20094;-90
2022/01/14 02:34:13;;;;;;;6.47;3.38;;;3.50;99.90;;;;;;4940662;29;20031;-92
2022/01/14 02:36:42;;;;;;;6.47;3.05;;;3.50;99.90;;;;;;4943000;29;20027;-92
2022/01/14 02:39:09;;;;;;;8.45;3.08;;;3.50;99.90;;;;;;4943214;28;20035;-91
2022/01/14 02:41:35;;;;;;;11.77;3.42;;;3.50;99.90;;;;;;4940762;29;20117;-92
2022/01/14 02:44:06;;;;;;;10.80;3.35;;;3.50;99.90;;;;;;4940103;29;20045;-92
2022/01/14 02:46:38;;;;;;;8.00;3.28;;;3.50;99.90;;;;;;4940434;29;20047;-89
2022/01/14 02:49:04;;;;;;;10.35;3.83;;;3.40;99.90;;;;;;4939967;29;20027;-91
2022/01/14 02:51:31;;;;;;;5.85;3.20;;;3.50;99.90;;;;;;4940079;29;20532;-91
2022/01/14 02:54:09;;;;;;;8.50;3.33;;;3.40;99.90;;;;;;4940055;29;20023;-91
2022/01/14 02:56:37;;;;;;;10.15;3.47;;;3.40;99.90;;;;;;4940465;29;20027;-92
2022/01/14 02:59:06;;;;;;;10.68;3.38;;;3.30;99.90;;;;;;4940151;29;20027;-91
2022/01/14 03:01:33;;;;;;;8.25;3.30;;;3.40;99.90;;;;;;4940129;29;20027;-93
2022/01/14 03:04:03;;;;;;;11.07;3.53;;;3.40;99.90;;;;;;4940256;29;20382;-92
2022/01/14 03:06:29;;;;;;;10.80;4.20;;;3.30;99.90;;;;;;4940046;29;20063;-92
2022/01/14 03:08:56;;;;;;;11.63;3.97;;;3.30;99.90;;;;;;4939847;29;20027;-91
2022/01/14 03:11:39;;;;;;;7.22;4.15;;;3.30;99.90;;;;;;4940155;29;20027;-91
2022/01/14 03:14:05;;;;;;;9.88;4.88;;;3.20;99.90;;;;;;4939979;29;20090;-92
2022/01/14 03:16:39;;;;;;;9.02;4.53;;;3.10;99.90;;;;;;4940007;29;20032;-93
2022/01/14 03:19:09;;;;;;;17.80;6.45;;;3.10;99.90;;;;;;4940119;29;20070;-92
2022/01/14 03:21:41;;;;;;;9.73;4.45;;;3.10;99.90;;;;;;4940382;29;20049;-90
2022/01/14 03:24:23;;;;;;;11.70;5.18;;;3.10;99.90;;;;;;4945386;29;20493;-90
2022/01/14 03:26:51;;;;;;;16.52;5.68;;;3.10;99.90;;;;;;4959790;29;20027;-92
2022/01/14 03:29:18;;;;;;;15.18;5.20;;;3.10;99.90;;;;;;4950336;29;20027;-90
2022/01/14 03:31:46;;;;;;;14.50;5.95;;;3.10;99.90;;;;;;4939563;29;20032;-90
2022/01/14 03:34:12;;;;;;;16.00;6.13;;;3.20;99.90;;;;;;4939546;29;20038;-92
2022/01/14 03:36:38;;;;;;;15.15;5.93;;;3.20;99.90;;;;;;4939719;29;20031;-91
2022/01/14 03:39:05;;;;;;;15.48;4.78;;;3.20;99.90;;;;;;4940365;29;20481;-90
2022/01/14 03:41:30;;;;;;;11.23;4.70;;;3.30;99.90;;;;;;4940968;29;20031;-93
2022/01/14 03:43:56;;;;;;;14.13;5.15;;;3.30;99.90;;;;;;4947114;29;20393;-91
2022/01/14 03:46:22;;;;;;;16.25;5.82;;;3.40;99.90;;;;;;4946706;29;20118;-91
2022/01/14 03:48:47;;;;;;;14.18;7.18;;;3.40;99.90;;;;;;4945481;29;20121;-93
2022/01/14 03:51:13;;;;;;;16.48;6.50;;;3.50;99.90;;;;;;4943591;29;20500;-91
2022/01/14 03:53:40;;;;;;;14.55;6.68;;;3.50;99.90;;;;;;4947198;29;20704;-91
2022/01/14 03:56:06;;;;;;;11.05;6.35;;;3.50;99.90;;;;;;4946696;29;20027;-92
2022/01/14 03:58:32;;;;;;;13.05;6.25;;;3.50;99.90;;;;;;4946274;29;20047;-92
2022/01/14 04:00:58;;;;;;;13.57;6.78;;;3.50;99.90;;;;;;4946120;29;20039;-91
2022/01/14 04:03:23;;;;;;;19.08;7.50;;;3.50;99.90;;;;;;4946026;29;20485;-92
2022/01/14 04:05:49;;;;;;;16.75;6.13;;;3.50;99.90;;;;;;4946040;29;20067;-93
2022/01/14 04:08:15;;;;;;;16.40;7.45;;;3.50;99.90;;;;;;4945712;29;20200;-91
2022/01/14 04:10:41;;;;;;;21.05;7.28;;;3.50;99.90;;;;;;4945951;29;20031;-92
2022/01/14 04:13:17;;;;;;;20.35;7.80;;;3.50;99.90;;;;;;4945938;29;20038;-94
2022/01/14 04:15:45;;;;;;;16.50;7.50;;;3.50;99.90;;;;;;4946651;29;20062;-92
2022/01/14 04:18:19;;;;;;;20.05;7.60;;;3.40;99.90;;;;;;4945797;29;20037;-92
2022/01/14 04:20:50;;;;;;;19.58;7.55;;;3.40;99.90;;;;;;4950716;29;20082;-93
2022/01/14 04:23:18;;;;;;;12.30;6.85;;;3.40;99.90;;;;;;4945702;29;20055;-94
2022/01/14 04:25:45;;;;;;;24.80;9.10;;;3.40;99.90;;;;;;4944858;29;20068;-93
2022/01/14 04:28:11;;;;;;;17.15;8.05;;;3.40;99.90;;;;;;4945057;29;20027;-91
2022/01/14 04:30:37;;;;;;;15.90;7.32;;;3.50;99.90;;;;;;4944822;29;20035;-90
2022/01/14 04:33:04;;;;;;;19.17;8.02;;;3.40;99.90;;;;;;4944977;29;20195;-92
2022/01/14 04:35:31;;;;;;;14.55;8.32;;;3.40;99.90;;;;;;4943944;29;20032;-93
2022/01/14 04:37:57;;;;;;;13.57;7.10;;;3.40;99.90;;;;;;4943873;29;20024;-93
2022/01/14 04:40:23;;;;;;;19.58;8.80;;;3.40;99.90;;;;;;4958140;29;20496;-93
2022/01/14 04:42:49;;;;;;;15.20;7.32;;;3.30;99.90;;;;;;4943350;29;20023;-92
2022/01/14 04:45:28;;;;;;;13.25;7.07;;;3.30;99.90;;;;;;4943816;29;20035;-93
2022/01/14 04:47:55;;;;;;;24.15;9.50;;;3.30;99.90;;;;;;4942480;29;20106;-92
2022/01/14 04:50:23;;;;;;;19.65;8.68;;;3.30;99.90;;;;;;4943736;29;20433;-92
2022/01/14 04:52:49;;;;;;;17.80;9.20;;;3.40;99.90;;;;;;4943981;29;20549;-92
2022/01/14 04:55:18;;;;;;;18.55;9.93;;;3.30;99.90;;;;;;4945626;29;20027;-92
2022/01/14 04:57:44;;;;;;;27.38;9.45;;;3.40;99.90;;;;;;4975217;29;20023;-92
2022/01/14 05:00:13;;;;;;;22.55;8.93;;;3.40;99.90;;;;;;4965129;29;20095;-92
2022/01/14 05:02:40;;;;;;;17.85;7.90;;;3.40;99.90;;;;;;4944662;29;20046;-93
2022/01/14 05:05:08;;;;;;;19.55;8.70;;;3.40;99.90;;;;;;4941372;29;20118;-93
2022/01/14 05:07:34;;;;;;;17.80;9.25;;;3.40;99.90;;;;;;4941732;29;20023;-93
2022/01/14 05:12:30;;;;;;;21.73;9.32;;;3.40;99.90;;;;;;4958579;29;20476;-93
2022/01/14 05:14:56;;;;;;;18.77;8.73;;;3.50;99.90;;;;;;4941489;29;20035;-91
2022/01/14 05:17:22;;;;;;;21.20;9.73;;;3.50;99.90;;;;;;4941365;29;20362;-92
2022/01/14 05:19:47;;;;;;;23.60;9.93;;;3.50;99.90;;;;;;4941272;29;20442;-90
2022/01/14 05:22:13;;;;;;;21.15;9.35;;;3.50;99.90;;;;;;4940865;29;20138;-92
2022/01/14 05:24:39;;;;;;;18.55;8.98;;;3.40;99.90;;;;;;4940908;29;20043;-91
2022/01/14 05:27:05;;;;;;;19.98;9.13;;;3.50;99.90;;;;;;4940978;29;20137;-92
2022/01/14 05:29:31;;;;;;;22.02;8.63;;;3.40;99.90;;;;;;4941003;29;20063;-92
2022/01/14 05:32:02;;;;;;;19.70;10.48;;;3.40;99.90;;;;;;4940815;29;20485;-91
2022/01/14 05:34:30;;;;;;;22.33;8.52;;;3.40;99.90;;;;;;4940731;29;20034;-93
2022/01/14 05:36:55;;;;;;;21.02;9.52;;;3.30;99.90;;;;;;4940770;29;20031;-91
2022/01/14 05:39:23;;;;;;;13.85;8.02;;;3.30;99.90;;;;;;4940926;29;20025;-92
2022/01/14 05:41:49;;;;;;;21.42;9.57;;;3.20;99.90;;;;;;4941047;29;20027;-92
2022/01/14 05:44:15;;;;;;;20.73;9.57;;;3.20;99.90;;;;;;4940626;29;20078;-91
2022/01/14 05:46:41;;;;;;;18.15;7.53;;;3.20;99.90;;;;;;4940518;29;20039;-92
2022/01/14 05:49:06;;;;;;;22.50;8.82;;;3.20;99.90;;;;;;4940740;29;20055;-92
2022/01/14 05:51:32;;;;;;;21.08;7.35;;;3.10;99.90;;;;;;4940827;29;20036;-91
2022/01/14 05:53:58;;;;;;;15.25;7.28;;;3.20;99.90;;;;;;4940631;29;20054;-92
2022/01/14 05:56:24;;;;;;;18.42;7.40;;;3.20;99.90;;;;;;4940547;29;20473;-92
2022/01/14 05:58:49;;;;;;;15.57;6.75;;;3.20;99.90;;;;;;4940536;29;20430;-92
2022/01/14 06:01:15;;;;;;;16.15;7.00;;;3.20;99.90;;;;;;4940718;29;20027;-91
2022/01/14 06:03:41;;;;;;;11.82;6.82;;;3.30;99.90;;;;;;4946054;29;20564;-92
2022/01/14 06:06:06;;;;;;;14.13;7.93;;;3.30;99.90;;;;;;4941936;29;20031;-92
2022/01/14 06:08:32;;;;;;;10.85;5.80;;;3.20;99.90;;;;;;4941067;29;20394;-91
2022/01/14 06:10:58;;;;;;;21.85;8.30;;;3.20;99.90;;;;;;4945261;29;20186;-93
2022/01/14 06:13:24;;;;;;;14.88;6.20;;;3.20;99.90;;;;;;4948119;29;20343;-92
2022/01/14 06:15:49;;;;;;;14.15;6.60;;;3.20;99.90;;;;;;4948296;29;20019;-94
2022/01/14 06:18:15;;;;;;;10.07;5.53;;;3.20;99.90;;;;;;4946774;29;20031;-92
2022/01/14 06:20:42;;;;;;;12.50;6.28;;;3.20;99.90;;;;;;4945564;29;20023;-92
2022/01/14 06:23:08;;;;;;;13.52;6.70;;;3.10;99.90;;;;;;4942369;29;20093;-92
2022/01/14 06:25:34;;;;;;;15.40;7.22;;;3.20;99.90;;;;;;4942519;29;20047;-91
2022/01/14 06:27:59;;;;;;;11.00;6.45;;;3.10;99.90;;;;;;4950542;29;20020;-91
2022/01/14 06:30:25;;;;;;;9.82;5.88;;;3.10;99.90;;;;;;4959770;29;20047;-91
2022/01/14 06:32:56;;;;;;;15.18;6.30;;;3.00;99.90;;;;;;4950542;29;20027;-91
2022/01/14 06:35:22;;;;;;;11.73;5.88;;;3.00;99.90;;;;;;4925135;29;20039;-92
2022/01/14 06:37:49;;;;;;;13.65;8.40;;;3.00;99.90;;;;;;4940519;29;20169;-91
2022/01/14 06:40:15;;;;;;;8.63;5.35;;;3.00;99.90;;;;;;4939640;29;20042;-91
2022/01/14 06:42:41;;;;;;;10.85;5.57;;;2.90;99.90;;;;;;4940503;29;20027;-92
2022/01/14 06:45:08;;;;;;;12.13;5.93;;;2.90;99.90;;;;;;4940347;29;20050;-92
2022/01/14 06:47:35;;;;;;;12.48;6.05;;;2.80;99.90;;;;;;4940025;29;20030;-92
2022/01/14 06:50:01;;;;;;;9.60;5.57;;;2.80;99.90;;;;;;4940067;29;20427;-92
2022/01/14 06:52:27;;;;;;;14.40;5.63;;;2.80;99.90;;;;;;4940465;29;20477;-91
2022/01/14 06:54:52;;;;;;;12.30;6.18;;;2.80;99.90;;;;;;4939831;29;20025;-92
2022/01/14 06:57:19;;;;;;;16.25;6.65;;;2.70;99.90;;;;;;4939712;29;20023;-92
2022/01/14 06:59:44;;;;;;;14.93;6.47;;;2.70;99.90;;;;;;4939785;29;20043;-92
2022/01/14 07:02:10;;;;;;;17.65;5.97;;;2.60;99.90;;;;;;4939469;29;20027;-91
2022/01/14 07:04:36;;;;;;;19.88;6.47;;;2.60;99.90;;;;;;4939677;29;20035;-91
2022/01/14 07:07:03;;;;;;;15.93;6.65;;;2.60;99.90;;;;;;4939852;29;20025;-91
2022/01/14 07:09:30;;;;;;;13.40;6.53;;;2.60;99.90;;;;;;4939444;29;20035;-91
2022/01/14 07:11:58;;;;;;;13.07;7.40;;;2.50;99.90;;;;;;4939681;29;20034;-91
2022/01/14 07:14:25;;;;;;;15.25;7.45;;;2.50;99.90;;;;;;4939206;29;20023;-92
2022/01/14 07:16:51;;;;;;;15.55;6.90;;;2.50;99.90;;;;;;4939477;29;20023;-91
2022/01/14 07:19:20;;;;;;;16.58;7.45;;;2.40;99.90;;;;;;4939620;29;20027;-92
2022/01/14 07:21:46;;;;;;;13.43;6.53;;;2.40;99.90;;;;;;4939458;29;20059;-92
2022/01/14 07:24:13;;;;;;;15.07;6.50;;;2.40;99.90;;;;;;4939057;29;20077;-92
2022/01/14 07:26:40;;;;;;;22.00;7.78;;;2.30;99.90;;;;;;4938437;29;20035;-91
2022/01/14 07:29:05;;;;;;;18.10;7.80;;;2.30;99.90;;;;;;4939102;29;20034;-90
2022/01/14 07:31:31;;;;;;;24.23;9.70;;;2.20;99.90;;;;;;4938802;29;20027;-91
2022/01/14 07:33:57;;;;;;;18.15;7.72;;;2.20;99.90;;;;;;4939237;29;20027;-91
2022/01/14 07:36:23;;;;;;;13.20;6.80;;;2.20;99.90;;;;;;4938123;29;20123;-93
2022/01/14 07:38:50;;;;;;;10.43;5.78;;;2.20;99.90;;;;;;4938414;29;20066;-93
2022/01/14 07:41:16;;;;;;;17.55;6.97;;;2.20;99.90;;;;;;4936344;29;20058;-92
2022/01/14 07:43:46;;;;;;;19.58;8.07;;;2.10;99.90;;;;;;4938371;29;20450;-93
2022/01/14 07:46:12;;;;;;;13.77;6.03;;;2.10;99.90;;;;;;4938607;29;20027;-91
2022/01/14 07:48:38;;;;;;;14.90;6.28;;;2.10;99.90;;;;;;4939971;29;20038;-89
2022/01/14 07:51:04;;;;;;;11.23;6.32;;;2.10;99.90;;;;;;4938980;29;20031;-91
2022/01/14 07:53:30;;;;;;;12.48;6.78;;;2.00;99.90;;;;;;4938358;29;20412;-90
2022/01/14 07:55:56;;;;;;;14.77;6.72;;;2.10;99.90;;;;;;4938804;29;20074;-91
2022/01/14 07:58:22;;;;;;;9.60;6.00;;;2.10;99.90;;;;;;4939523;29;20030;-91
2022/01/14 08:00:48;;;;;;;14.50;6.65;;;2.10;99.90;;;;;;4948219;29;20056;-90
2022/01/14 08:03:14;;;;;;;10.38;5.70;;;2.10;99.90;;;;;;4958726;29;20137;-91
2022/01/14 08:05:40;;;;;;;13.68;5.97;;;2.00;99.90;;;;;;4951374;29;20040;-91
2022/01/14 08:08:07;;;;;;;15.68;7.00;;;2.00;99.90;;;;;;4938675;29;20082;-91
2022/01/14 08:10:34;;;;;;;15.13;6.68;;;2.00;99.90;;;;;;4938641;29;20497;-93
2022/01/14 08:13:01;;;;;;;13.75;6.82;;;2.00;99.90;;;;;;4937798;29;20051;-91
2022/01/14 08:15:27;;;;;;;14.60;7.57;;;1.90;99.90;;;;;;4938652;29;20027;-91
2022/01/14 08:17:59;;;;;;;17.10;7.60;;;1.90;99.90;;;;;;4937349;29;20082;-91
2022/01/14 08:20:25;;;;;;;15.75;7.50;;;1.80;99.90;;;;;;4938357;29;20091;-91
2022/01/14 08:22:51;;;;;;;22.33;11.10;;;1.80;99.90;;;;;;4937687;29;20074;-92
2022/01/14 08:25:16;;;;;;;21.25;9.82;;;1.70;99.90;;;;;;4938822;29;20093;-92
2022/01/14 08:27:42;;;;;;;14.10;6.70;;;1.70;99.90;;;;;;4938626;29;20117;-92
2022/01/14 08:30:08;;;;;;;16.27;8.55;;;1.60;99.90;;;;;;4938202;29;20038;-90
2022/01/14 08:32:34;;;;;;;13.23;7.15;;;1.60;99.90;;;;;;4937596;29;20031;-91
2022/01/14 08:35:00;;;;;;;15.63;7.45;;;1.60;99.90;;;;;;4935002;29;20031;-91
2022/01/14 08:37:27;;;;;;;18.83;7.53;;;1.60;99.90;;;;;;4938186;29;20022;-92
2022/01/14 08:39:53;;;;;;;20.08;10.50;;;1.60;99.90;;;;;;4941705;29;20113;-92
2022/01/14 08:42:19;;;;;;;18.70;8.48;;;1.60;99.90;;;;;;4941113;29;20142;-90
2022/01/14 08:44:45;;;;;;;16.73;8.25;;;1.60;99.90;;;;;;4944741;29;20036;-90
2022/01/14 08:47:11;;;;;;;20.33;8.13;;;1.70;99.90;;;;;;4944657;29;20067;-91
2022/01/14 08:49:39;;;;;;;13.85;7.10;;;1.70;99.90;;;;;;4948123;29;20038;-91
2022/01/14 08:52:05;;;;;;;17.88;7.68;;;1.70;99.90;;;;;;4943534;28;20059;-93
2022/01/14 08:54:31;;;;;;;19.00;8.57;;;1.70;99.90;;;;;;4943501;29;20042;-92
2022/01/14 08:56:57;;;;;;;19.52;9.40;;;1.70;99.90;;;;;;4947536;29;20031;-92
2022/01/14 08:59:23;;;;;;;19.85;10.00;;;1.80;99.90;;;;;;4945117;29;20105;-90
2022/01/14 09:01:49;;;;;;;19.67;9.80;;;1.80;99.90;;;;;;4944433;29;20047;-92
2022/01/14 09:04:15;;;;;;;17.23;9.68;;;1.90;99.90;;;;;;4941894;29;20035;-91
2022/01/14 09:06:41;;;;;;;17.15;7.90;;;1.90;99.90;;;;;;4940460;29;20031;-91
2022/01/14 09:09:07;;;;;;;19.30;8.73;;;1.90;99.90;;;;;;4951590;29;20031;-91
2022/01/14 09:11:34;;;;;;;20.15;9.70;;;2.00;99.90;;;;;;4942289;29;20070;-91
2022/01/14 09:14:00;;;;;;;18.42;10.35;;;1.90;99.90;;;;;;4943897;29;20027;-89
2022/01/14 09:16:26;;;;;;;18.27;9.02;;;1.90;99.90;;;;;;4943194;29;20058;-90
2022/01/14 09:18:52;;;;;;;21.33;10.50;;;1.80;99.90;;;;;;4942229;29;20496;-92
2022/01/14 09:21:18;;;;;;;18.10;8.55;;;1.90;99.90;;;;;;4942878;29;20035;-91
2022/01/14 09:23:53;;;;;;;26.00;10.65;;;1.80;99.90;;;;;;4940328;29;20051;-91
2022/01/14 09:26:19;;;;;;;24.27;11.40;;;1.70;99.90;;;;;;4941531;29;20078;-91
2022/01/14 09:28:49;;;;;;;25.13;11.32;;;1.70;99.90;;;;;;4943909;29;20026;-92
2022/01/14 09:31:16;;;;;;;31.08;12.90;;;1.90;99.90;;;;;;4945712;29;20038;-91
2022/01/14 09:33:42;;;;;;;23.80;12.38;;;2.00;99.90;;;;;;4934517;29;20086;-92
2022/01/14 09:36:08;;;;;;;27.92;11.27;;;2.20;99.90;;;;;;4934719;28;20055;-91
2022/01/14 09:38:34;;;;;;;22.48;10.05;;;2.40;99.90;;;;;;4943198;29;20047;-91
2022/01/14 09:41:00;;;;;;;18.83;9.23;;;2.60;99.90;;;;;;4937372;29;20027;-90
2022/01/14 09:43:26;;;;;;;18.42;9.13;;;2.80;99.90;;;;;;4923105;29;20482;-90
2022/01/14 09:45:53;;;;;;;15.60;8.18;;;3.10;99.90;;;;;;4922370;29;20042;-90
2022/01/14 09:48:20;;;;;;;16.15;8.68;;;3.30;99.90;;;;;;4923026;29;20119;-90
2022/01/14 09:50:46;;;;;;;13.27;7.38;;;3.50;99.90;;;;;;4943598;29;20058;-90
2022/01/14 09:53:14;;;;;;;14.52;7.47;;;3.70;99.90;;;;;;4944677;29;20032;-92
2022/01/14 09:55:40;;;;;;;13.52;7.93;;;4.00;99.90;;;;;;4943556;29;20046;-91
2022/01/14 09:58:07;;;;;;;11.45;6.32;;;4.30;99.90;;;;;;4940441;28;20062;-92
2022/01/14 10:00:35;;;;;;;11.25;6.30;;;4.60;99.90;;;;;;4941393;29;20031;-91
2022/01/14 10:09:43;;;;;;;15.18;6.30;;;5.30;99.90;;;;;;4993763;28;20053;-86
2022/01/14 10:12:18;;;;;;;9.77;6.15;;;5.60;99.90;;;;;;4978553;28;20587;-91
2022/01/14 10:15:00;;;;;;;12.35;6.20;;;5.90;99.90;;;;;;4978533;28;20100;-91
2022/01/14 10:19:52;;;;;;;14.52;7.65;;;6.50;99.90;;;;;;4952890;28;20030;-91
2022/01/14 10:22:29;;;;;;;21.92;10.50;;;6.80;99.90;;;;;;4978301;28;20030;-91
2022/01/14 10:24:59;;;;;;;25.00;10.77;;;7.00;99.90;;;;;;4978101;28;20049;-92
2022/01/14 10:27:36;;;;;;;32.45;13.85;;;7.10;99.90;;;;;;4978398;28;20098;-91
2022/01/14 10:30:15;;;;;;;43.42;18.50;;;7.30;99.90;;;;;;4978321;28;20041;-92
2022/01/14 10:32:43;;;;;;;33.55;15.73;;;7.50;99.90;;;;;;4977332;28;20033;-91
2022/01/14 10:35:18;;;;;;;31.13;12.15;;;7.60;99.90;;;;;;4977550;28;20034;-93
2022/01/14 10:37:44;;;;;;;16.17;8.57;;;7.80;99.90;;;;;;4977607;28;20022;-92
2022/01/14 10:40:19;;;;;;;14.15;7.50;;;8.00;99.90;;;;;;4975927;28;20040;-92
2022/01/14 10:42:45;;;;;;;12.57;6.38;;;8.10;99.90;;;;;;4973973;28;20045;-93
2022/01/14 10:45:27;;;;;;;10.00;6.68;;;8.30;99.90;;;;;;4974067;28;20041;-92
2022/01/14 10:48:06;;;;;;;13.55;6.60;;;8.60;99.90;;;;;;4966907;28;20088;-91
2022/01/14 10:50:43;;;;;;;10.45;5.93;;;8.90;99.90;;;;;;4967951;28;20484;-92
2022/01/14 10:53:13;;;;;;;13.13;7.07;;;9.10;99.90;;;;;;4968068;28;20014;-92
2022/01/14 10:55:51;;;;;;;12.23;6.10;;;9.30;99.90;;;;;;4959525;28;20027;-90
2022/01/14 10:58:25;;;;;;;11.57;6.05;;;9.50;99.90;;;;;;4975219;28;20487;-90
2022/01/14 11:01:03;;;;;;;13.60;7.15;;;9.70;99.90;;;;;;4976263;28;20042;-89
2022/01/14 11:03:40;;;;;;;11.18;6.00;;;10.00;99.90;;;;;;4977692;28;20483;-90
2022/01/14 11:06:33;;;;;;;14.45;6.28;;;10.20;99.90;;;;;;4977244;28;20100;-90
2022/01/14 11:09:03;;;;;;;13.80;6.50;;;10.40;99.90;;;;;;4980412;28;20050;-90
2022/01/14 11:11:31;;;;;;;13.52;7.05;;;10.60;99.90;;;;;;4991463;28;20033;-90
2022/01/14 11:13:57;;;;;;;18.75;7.45;;;10.70;99.90;;;;;;4998013;28;20030;-90
2022/01/14 11:16:24;;;;;;;18.15;7.20;;;10.70;99.90;;;;;;4980007;28;20037;-92
2022/01/14 11:18:50;;;;;;;14.25;6.60;;;10.90;99.90;;;;;;4976985;28;20056;-89
2022/01/14 11:24:06;;;;;;;10.73;6.30;;;11.20;99.90;;;;;;4993393;28;20041;-90
2022/01/14 11:26:37;;;;;;;13.27;6.38;;;11.40;99.90;;;;;;4975743;28;20065;-91
2022/01/14 11:29:15;;;;;;;9.98;5.30;;;11.50;99.90;;;;;;4975489;28;20575;-90
2022/01/14 11:31:43;;;;;;;13.15;5.22;;;11.80;99.80;;;;;;4961501;28;20023;-91
2022/01/14 11:34:30;;;;;;;9.63;5.40;;;12.00;98.90;;;;;;4977131;28;20472;-91
2022/01/14 11:36:59;;;;;;;7.70;4.90;;;12.10;97.80;;;;;;4985277;28;20026;-92
2022/01/14 11:39:31;;;;;;;9.07;4.85;;;12.30;96.90;;;;;;4983831;28;20053;-92
2022/01/14 11:42:05;;;;;;;8.48;4.53;;;12.60;96.20;;;;;;4983824;28;20030;-91
2022/01/14 11:44:44;;;;;;;8.23;4.63;;;12.90;95.00;;;;;;4997269;28;20143;-91
2022/01/14 11:47:35;;;;;;;9.32;4.75;;;13.10;93.80;;;;;;4978117;28;20030;-91
2022/01/14 11:50:01;;;;;;;;;;;13.30;92.90;;;;;;4978013;28;20058;-91
2022/01/14 11:52:41;;;;;;;10.13;4.18;;;13.40;92.50;;;;;;4977500;28;19921;-90
2022/01/14 11:55:35;;;;;;;10.50;4.25;;;13.50;92.00;;;;;;4977840;28;20027;-92
2022/01/14 11:58:02;;;;;;;10.30;4.60;;;13.60;91.40;;;;;;4977354;28;20034;-92
2022/01/14 12:00:30;;;;;;;12.35;4.88;;;13.70;90.80;;;;;;4977178;28;20387;-91
2022/01/14 12:02:55;;;;;;;9.70;4.93;;;13.80;90.10;;;;;;4976973;28;20730;-92
2022/01/14 12:05:28;;;;;;;10.07;4.88;;;14.00;89.20;;;;;;4977024;28;20345;-92
2022/01/14 12:08:04;;;;;;;10.68;5.07;;;14.10;87.80;;;;;;4976842;28;20070;-92
2022/01/14 12:10:43;;;;;;;10.85;5.75;;;14.30;86.70;;;;;;4976923;28;20042;-92
2022/01/14 12:13:24;;;;;;;9.45;4.53;;;14.50;85.80;;;;;;4976344;28;20019;-91
2022/01/14 12:16:03;;;;;;;12.07;4.65;;;14.60;83.90;;;;;;4961257;28;20027;-92
2022/01/14 12:18:57;;;;;;;8.15;4.35;;;14.70;83.20;;;;;;4961511;28;20031;-92
2022/01/14 12:21:40;;;;;;;12.45;4.60;;;14.90;82.20;;;;;;4961682;28;20027;-92
2022/01/14 12:24:18;;;;;;;9.68;4.72;;;15.00;81.30;;;;;;4961681;28;20106;-92
2022/01/14 12:26:55;;;;;;;9.18;4.57;;;15.20;80.50;;;;;;4961524;28;20047;-91
2022/01/14 12:29:41;;;;;;;8.40;4.50;;;15.40;79.90;;;;;;4961474;28;20034;-91
2022/01/14 12:32:21;;;;;;;8.40;4.03;;;15.50;78.60;;;;;;4978283;28;20077;-91
2022/01/14 12:34:56;;;;;;;9.98;4.35;;;15.70;78.00;;;;;;4961500;28;20096;-90
2022/01/14 12:37:28;;;;;;;7.72;4.07;;;15.90;77.20;;;;;;4961542;28;20534;-89
2022/01/14 12:39:54;;;;;;;10.15;4.47;;;16.00;76.40;;;;;;4972541;28;20076;-90
2022/01/14 12:42:22;;;;;;;10.40;4.20;;;16.10;75.70;;;;;;4967993;28;20019;-91
2022/01/14 12:44:51;;;;;;;7.03;4.05;;;16.10;75.00;;;;;;4979725;28;20062;-91
2022/01/14 12:47:25;;;;;;;6.95;4.00;;;16.20;74.60;;;;;;4978112;28;20061;-90
2022/01/14 12:49:52;;;;;;;8.43;4.43;;;16.50;73.80;;;;;;4967138;28;20066;-90
2022/01/14 12:52:40;;;;;;;8.95;4.25;;;16.60;73.00;;;;;;4962728;28;20042;-90
2022/01/14 12:55:08;;;;;;;7.68;4.05;;;16.80;72.50;;;;;;4963746;28;20050;-91
2022/01/14 12:57:34;;;;;;;6.25;3.67;;;17.00;72.50;;;;;;4971187;28;20022;-90
2022/01/14 13:00:00;;;;;;;6.97;4.43;;;17.30;71.00;;;;;;4974237;28;20031;-90
2022/01/14 13:02:31;;;;;;;11.52;5.95;;;17.50;70.30;;;;;;4969196;28;20022;-89
2022/01/14 13:05:03;;;;;;;11.73;4.80;;;17.50;69.10;;;;;;4969481;28;20170;-89
2022/01/14 13:07:30;;;;;;;7.75;4.50;;;17.40;68.00;;;;;;4960272;28;20102;-90
2022/01/14 13:09:56;;;;;;;9.43;4.68;;;17.40;68.00;;;;;;4966268;28;20035;-90
2022/01/14 13:12:27;;;;;;;9.65;4.95;;;17.50;67.40;;;;;;4970457;28;20027;-88
2022/01/14 13:14:56;;;;;;;7.97;4.63;;;17.60;66.70;;;;;;4961742;28;20026;-90
2022/01/14 13:17:26;;;;;;;8.82;5.00;;;17.60;66.00;;;;;;4976178;28;20041;-89
2022/01/14 13:20:22;;;;;;;9.07;5.05;;;17.70;66.00;;;;;;4968140;28;20471;-89
2022/01/14 13:22:50;;;;;;;7.88;4.75;;;17.80;65.30;;;;;;4971175;28;20131;-88
2022/01/14 13:25:24;;;;;;;8.90;4.95;;;17.90;65.00;;;;;;4967304;28;20049;-89
2022/01/14 13:27:54;;;;;;;9.18;4.70;;;17.90;64.40;;;;;;4966660;28;20129;-89
2022/01/14 13:30:26;;;;;;;9.48;4.47;;;18.00;63.90;;;;;;4972675;28;20122;-89